Airfield :
LOGIN :

Register | Disclaimer

   EN    FR    IT 

 










Legend :    VFR   Marginal VFR   IFR   Intensive IFR   Very Intensive IFR
Visi :
Ceiling :
>= 8 km
>= 3000ft
5 to 8 km
1000 to 3000 ft
1500m to 5 km
500 to 1000 ft
800 to 1500m
200 to 500 ft
< 800m
< 200 ft
Symbols :   Thunderstorms  Fog  Heavy snow  Heavy precipitations  Wind > 20 kt
SIGMETs :     Misc.  Thunderstorms  Icing  Turbulence  Mountain Waves  Volcanic Ashes






- Airport Elevation : 209 ft
- IATA code : CLY


LFKC - Calvi

CURRENT METAR :
  • 170400Z AUTO 22016KT 190V250 9999 OVC100 16/07 Q1010 TEMPO RA FEW035TCU SCT060 BKN090 BECMG 22015G25KT

EXPIRED METARs :
  • 170330Z AUTO 22015KT 9999 FEW076 BKN094 OVC110 16/08 Q1010 TEMPO RA FEW035TCU SCT060 BKN090 BECMG 22015G25KT
  • 170300Z AUTO 23018KT 9999 FEW028 BKN098 BKN120 16/10 Q1010
  • 170230Z AUTO 24013KT 210V280 9999 BKN100 BKN130 16/11 Q1009
  • 170200Z AUTO 21014KT 180V240 9999 SCT066/// BKN090/// OVC110/// ///TCU 16/12 Q1009
  • 170130Z AUTO 20011KT 9999 -RA BKN082/// BKN120/// ///TCU 16/12 Q1009

TAF TAF LFKC
Valid from the 17 at 03:00 until the 18 at 03:00 UTC


170200Z 1703/1803 22015G25KT 9999 FEW030 BKN100 TX21/1712Z TN14/1803Z
TEMPO 1703/1706 RA FEW035TCU SCT060 BKN090
BECMG 1706/1708 CAVOK
TEMPO 1708/1716 21020G35KT
BECMG 1719/1721 19010KT
ATIS : +33 4 95 65 82 49



MET'MAP, your aeronautical weather chart ! - Copyright ORBIFLY December 2007 - Disclaimer

ORBIFLY MET'MAP TEAM :

Programming & Development : Alexandra Zaïnal
Concept & original design : Baudouin d'Aumeries
Assistance for programming : Marc-Olivier Méhu
Technical & hardware support : Manuel Goepfert

Contact : metmap@orbifly.com




SOURCES & CREDITS :

   NOAA